createdAt,value
2022-08-18T00:02:25.033Z,12.57
2022-08-18T00:04:57.373Z,10.13
2022-08-18T00:07:31.683Z,11.10
2022-08-18T00:10:00.194Z,13.90
2022-08-18T00:12:38.280Z,12.23
2022-08-18T00:15:11.711Z,12.02
2022-08-18T00:17:38.962Z,12.52
2022-08-18T00:20:09.226Z,12.88
2022-08-18T00:22:37.290Z,11.75
2022-08-18T00:25:04.412Z,11.38
2022-08-18T00:27:31.956Z,13.43
2022-08-18T00:30:01.818Z,12.27
2022-08-18T00:32:34.015Z,11.32
2022-08-18T00:35:14.790Z,14.23
2022-08-18T00:37:42.983Z,10.88
2022-08-18T00:40:12.846Z,12.60
2022-08-18T00:42:52.905Z,13.10
2022-08-18T00:45:26.122Z,11.48
2022-08-18T00:47:53.935Z,12.05
2022-08-18T00:50:52.474Z,13.13
2022-08-18T00:53:31.524Z,11.02
2022-08-18T00:56:08.561Z,16.38
2022-08-18T00:58:42.531Z,11.85
2022-08-18T01:01:11.710Z,12.23
2022-08-18T01:03:40.264Z,13.45
2022-08-18T01:06:27.201Z,11.13
2022-08-18T01:08:55.990Z,15.55
2022-08-18T01:11:23.264Z,13.05
2022-08-18T01:13:50.490Z,11.88
2022-08-18T01:16:36.984Z,14.68
2022-08-18T01:19:23.422Z,14.13
2022-08-18T01:22:00.876Z,12.93
2022-08-18T01:24:52.051Z,11.20
2022-08-18T01:27:19.543Z,10.48
2022-08-18T01:29:49.181Z,10.75
2022-08-18T01:32:22.864Z,11.73
2022-08-18T01:34:52.068Z,13.02
2022-08-18T01:37:22.285Z,10.57
2022-08-18T01:40:59.781Z,15.32
2022-08-18T01:42:39.681Z,10.27
2022-08-18T01:45:08.088Z,10.80
2022-08-18T01:47:47.513Z,11.02
2022-08-18T01:50:16.146Z,13.80
2022-08-18T01:52:43.203Z,9.93
2022-08-18T01:55:10.941Z,9.88
2022-08-18T01:57:45.230Z,9.63
2022-08-18T02:00:15.434Z,9.80
2022-08-18T02:02:42.919Z,12.77
2022-08-18T02:05:18.401Z,13.00
2022-08-18T02:07:45.659Z,9.95
2022-08-18T02:10:16.460Z,12.43
2022-08-18T02:12:44.068Z,14.93
2022-08-18T02:15:11.971Z,10.07
2022-08-18T02:17:40.480Z,9.77
2022-08-18T02:20:10.199Z,10.02
2022-08-18T02:22:37.813Z,10.30
2022-08-18T02:25:05.193Z,8.77
2022-08-18T02:27:35.320Z,10.90
2022-08-18T02:30:06.874Z,8.57
2022-08-18T02:32:34.168Z,9.63
2022-08-18T02:35:02.002Z,10.60
2022-08-18T02:37:31.102Z,8.68
2022-08-18T02:39:58.212Z,11.82
2022-08-18T02:42:25.732Z,9.90
2022-08-18T02:44:52.689Z,16.48
2022-08-18T02:47:22.891Z,11.65
2022-08-18T02:49:49.933Z,8.45
2022-08-18T02:52:17.385Z,9.75
2022-08-18T02:54:44.436Z,9.50
2022-08-18T02:57:12.868Z,10.80
2022-08-18T02:59:41.392Z,8.32
2022-08-18T03:02:14.558Z,8.45
2022-08-18T03:04:41.658Z,11.15
2022-08-18T03:07:09.227Z,9.32
2022-08-18T03:09:36.672Z,9.63
2022-08-18T03:12:04.167Z,11.18
2022-08-18T03:14:31.093Z,8.98
2022-08-18T03:16:58.243Z,9.23
2022-08-18T03:19:28.466Z,12.25
2022-08-18T03:21:59.391Z,8.70
2022-08-18T03:24:31.511Z,7.53
2022-08-18T03:27:00.331Z,14.88
2022-08-18T03:29:32.063Z,8.18
2022-08-18T03:32:00.637Z,9.45
2022-08-18T03:34:27.658Z,11.07
2022-08-18T03:36:57.081Z,8.38
2022-08-18T03:39:25.240Z,9.93
2022-08-18T03:42:00.083Z,10.00
2022-08-18T03:44:35.686Z,7.70
2022-08-18T03:47:03.913Z,9.35
2022-08-18T03:49:33.736Z,9.57
2022-08-18T03:52:01.689Z,12.18
2022-08-18T03:54:32.067Z,12.00
2022-08-18T03:57:00.318Z,14.43
2022-08-18T03:59:28.203Z,9.43
2022-08-18T04:01:55.902Z,8.73
2022-08-18T04:04:28.356Z,9.10
2022-08-18T04:06:58.563Z,8.05
2022-08-18T04:09:28.705Z,12.27
2022-08-18T04:11:56.751Z,9.52
2022-08-18T04:14:26.001Z,8.52
2022-08-18T04:16:53.383Z,12.50
2022-08-18T04:19:27.367Z,11.38
2022-08-18T04:21:56.617Z,15.68
2022-08-18T04:24:26.079Z,8.73
2022-08-18T04:26:53.636Z,9.57
2022-08-18T04:29:21.769Z,7.07
2022-08-18T04:31:51.673Z,9.50
2022-08-18T04:34:20.742Z,10.52
2022-08-18T04:36:48.389Z,8.25
2022-08-18T04:39:15.511Z,10.25
2022-08-18T04:41:43.889Z,10.13
2022-08-18T04:44:12.640Z,8.68
2022-08-18T04:46:43.752Z,10.18
2022-08-18T04:49:12.007Z,9.88
2022-08-18T04:52:27.054Z,13.50
2022-08-18T04:54:30.083Z,14.63
2022-08-18T04:56:56.982Z,9.15
2022-08-18T04:59:24.976Z,13.48
2022-08-18T05:01:51.887Z,11.20
2022-08-18T05:04:20.065Z,8.98
2022-08-18T05:06:46.988Z,11.25
2022-08-18T05:09:23.012Z,9.90
2022-08-18T05:11:51.006Z,15.43
2022-08-18T05:14:18.833Z,10.88
2022-08-18T05:16:48.748Z,11.15
2022-08-18T05:19:22.137Z,9.70
2022-08-18T05:21:58.360Z,10.52
2022-08-18T05:24:33.524Z,9.10
2022-08-18T05:27:04.858Z,10.23
2022-08-18T05:29:41.655Z,9.05
2022-08-18T05:32:33.821Z,11.82
2022-08-18T05:35:14.425Z,8.77
2022-08-18T05:37:57.990Z,8.75
2022-08-18T05:40:26.055Z,10.52
2022-08-18T05:42:57.372Z,12.68
2022-08-18T05:45:25.156Z,17.38
2022-08-18T05:48:00.100Z,11.43
2022-08-18T05:50:29.032Z,13.05
2022-08-18T05:53:13.397Z,12.43
2022-08-18T05:56:21.052Z,10.73
2022-08-18T05:58:53.023Z,11.32
2022-08-18T06:01:25.708Z,17.55
2022-08-18T06:04:01.698Z,14.50
2022-08-18T06:06:30.816Z,14.32
2022-08-18T06:08:58.087Z,11.65
2022-08-18T06:11:26.048Z,12.18
2022-08-18T06:13:57.749Z,11.50
2022-08-18T06:17:01.180Z,15.95
2022-08-18T06:19:42.911Z,11.63
2022-08-18T06:22:52.206Z,13.13
2022-08-18T06:25:24.657Z,12.90
2022-08-18T06:28:03.882Z,10.00
2022-08-18T06:31:02.602Z,9.63
2022-08-18T06:33:32.677Z,12.18
2022-08-18T06:36:31.615Z,12.07
2022-08-18T06:39:22.284Z,10.98
2022-08-18T06:41:51.356Z,11.38
2022-08-18T06:44:38.228Z,9.48
2022-08-18T06:47:46.626Z,10.65
2022-08-18T06:51:00.650Z,7.97
2022-08-18T06:53:52.801Z,9.45
2022-08-18T06:56:26.194Z,9.00
2022-08-18T06:58:55.415Z,7.57
2022-08-18T07:01:25.146Z,10.02
2022-08-18T07:03:56.712Z,8.43
2022-08-18T07:06:25.377Z,14.43
2022-08-18T07:08:54.529Z,10.38
2022-08-18T07:11:33.145Z,10.30
2022-08-18T07:14:21.310Z,9.38
2022-08-18T07:16:58.843Z,10.57
2022-08-18T07:19:30.274Z,9.82
2022-08-18T07:22:14.549Z,9.90
2022-08-18T07:24:49.240Z,8.23
2022-08-18T07:27:21.010Z,12.95
2022-08-18T07:32:48.082Z,9.77
2022-08-18T07:35:19.703Z,8.05
2022-08-18T07:38:44.519Z,12.38
2022-08-18T07:41:20.833Z,10.40
2022-08-18T07:43:51.908Z,8.32
2022-08-18T07:46:24.101Z,7.00
2022-08-18T07:48:52.267Z,8.15
2022-08-18T07:51:37.215Z,9.32
2022-08-18T07:54:25.311Z,9.80
2022-08-18T07:57:20.346Z,7.80
2022-08-18T07:59:57.741Z,10.20
2022-08-18T08:02:52.593Z,8.95
2022-08-18T08:05:25.645Z,8.27
2022-08-18T08:08:01.729Z,7.90
2022-08-18T08:10:51.653Z,8.70
2022-08-18T08:13:54.209Z,9.48
2022-08-18T08:16:44.476Z,5.90
2022-08-18T08:19:59.493Z,7.60
2022-08-18T08:22:39.010Z,8.73
2022-08-18T08:25:46.790Z,10.60
2022-08-18T08:28:28.187Z,6.40
2022-08-18T08:30:55.392Z,2.97
2022-08-18T08:33:31.983Z,3.65
2022-08-18T08:36:13.533Z,5.22
2022-08-18T08:39:02.234Z,5.03
2022-08-18T08:41:40.830Z,3.67
2022-08-18T08:44:21.575Z,3.65
2022-08-18T08:47:05.246Z,4.95
2022-08-18T08:49:44.678Z,2.92
2022-08-18T08:52:34.995Z,4.47
2022-08-18T08:55:19.178Z,5.60
2022-08-18T08:57:56.015Z,3.10
2022-08-18T09:00:23.411Z,2.83
2022-08-18T09:03:13.631Z,3.97
2022-08-18T09:06:03.262Z,6.35
2022-08-18T09:08:40.519Z,3.63
2022-08-18T09:11:27.820Z,3.35
2022-08-18T09:14:07.814Z,3.95
2022-08-18T09:16:59.520Z,4.43
2022-08-18T09:20:11.754Z,5.70
2022-08-18T09:22:53.965Z,3.40
2022-08-18T09:25:39.417Z,2.67
2022-08-18T09:28:17.148Z,3.50
2022-08-18T09:31:08.841Z,3.15
2022-08-18T09:33:48.468Z,3.00
2022-08-18T09:36:33.747Z,3.50
2022-08-18T09:39:40.949Z,2.40
2022-08-18T09:42:29.955Z,3.25
2022-08-18T09:45:02.135Z,5.20
2022-08-18T09:47:30.388Z,3.88
2022-08-18T09:50:39.397Z,4.13
2022-08-18T09:53:32.795Z,3.72
2022-08-18T09:59:02.898Z,2.50
2022-08-18T10:01:40.101Z,2.70
2022-08-18T10:04:29.083Z,2.33
2022-08-18T10:07:29.329Z,5.57
2022-08-18T10:10:59.876Z,3.85
2022-08-18T10:15:49.299Z,4.97
2022-08-18T10:18:16.730Z,6.35
2022-08-18T10:20:58.380Z,4.07
2022-08-18T10:26:30.432Z,6.13
2022-08-18T10:29:02.438Z,2.53
2022-08-18T10:31:32.214Z,3.63
2022-08-18T10:37:02.587Z,4.93
2022-08-18T10:39:41.913Z,3.38
2022-08-18T10:42:20.102Z,5.00
2022-08-18T10:44:50.506Z,4.93
2022-08-18T10:47:25.858Z,3.90
2022-08-18T10:50:05.278Z,3.22
2022-08-18T10:52:46.133Z,2.85
2022-08-18T10:55:48.048Z,3.58
2022-08-18T10:58:43.223Z,3.65
2022-08-18T11:01:23.130Z,4.85
2022-08-18T11:07:19.533Z,4.85
2022-08-18T11:10:04.709Z,3.38
2022-08-18T11:13:00.409Z,3.60
2022-08-18T11:16:17.505Z,6.47
2022-08-18T11:18:49.574Z,3.45
2022-08-18T11:21:43.861Z,4.30
2022-08-18T11:24:23.206Z,4.93
2022-08-18T11:26:59.271Z,6.30
2022-08-18T11:32:32.974Z,7.00
2022-08-18T11:35:11.082Z,3.85
2022-08-18T11:37:51.442Z,4.50
2022-08-18T11:41:08.886Z,4.32
2022-08-18T11:43:21.687Z,3.58
2022-08-18T11:45:54.632Z,5.68
2022-08-18T11:48:52.494Z,4.30
2022-08-18T11:51:23.647Z,3.65
2022-08-18T11:53:59.760Z,8.30
2022-08-18T11:56:35.984Z,3.40
2022-08-18T12:02:25.616Z,4.05
2022-08-18T12:07:57.580Z,5.05
2022-08-18T12:10:28.962Z,5.43
2022-08-18T12:12:59.993Z,7.47
2022-08-18T12:15:43.956Z,3.35
2022-08-18T12:18:28.108Z,4.85
2022-08-18T12:23:48.861Z,3.75
2022-08-18T12:26:38.370Z,5.47
2022-08-18T12:29:09.041Z,4.78
2022-08-18T12:31:42.276Z,4.28
2022-08-18T12:34:17.762Z,4.75
2022-08-18T12:36:54.315Z,2.88
2022-08-18T12:39:21.419Z,2.17
2022-08-18T12:41:49.589Z,2.58
2022-08-18T12:44:16.569Z,2.53
2022-08-18T12:46:45.418Z,2.90
2022-08-18T12:49:18.169Z,3.42
2022-08-18T12:51:46.281Z,5.20
2022-08-18T12:54:18.818Z,3.15
2022-08-18T12:56:51.762Z,3.35
2022-08-18T12:59:19.059Z,7.55
2022-08-18T13:01:47.080Z,3.40
2022-08-18T13:04:15.644Z,2.42
2022-08-18T13:09:48.531Z,2.45
2022-08-18T13:12:22.540Z,3.75
2022-08-18T13:14:51.626Z,5.03
2022-08-18T13:17:30.371Z,5.63
2022-08-18T13:20:09.912Z,4.45
2022-08-18T13:22:40.505Z,4.63
2022-08-18T13:25:11.149Z,5.03
2022-08-18T13:27:43.621Z,3.88
2022-08-18T13:30:29.805Z,3.47
2022-08-18T13:33:02.593Z,3.15
2022-08-18T13:35:48.017Z,3.35
2022-08-18T13:38:25.738Z,3.00
2022-08-18T13:40:57.778Z,3.78
2022-08-18T13:46:02.491Z,2.97
2022-08-18T13:48:31.986Z,4.25
2022-08-18T13:51:01.147Z,3.67
2022-08-18T13:53:30.008Z,4.13
2022-08-18T13:55:59.570Z,4.43
2022-08-18T13:58:29.706Z,4.85
2022-08-18T14:01:22.786Z,2.95
2022-08-18T14:03:47.938Z,6.10
2022-08-18T14:06:18.399Z,3.40
2022-08-18T14:08:50.679Z,3.47
2022-08-18T14:11:18.742Z,4.82
2022-08-18T14:13:45.871Z,4.35
2022-08-18T14:16:18.640Z,5.38
2022-08-18T14:19:11.063Z,2.90
2022-08-18T14:22:03.203Z,5.45
2022-08-18T14:24:50.663Z,3.70
2022-08-18T14:27:20.573Z,4.65
2022-08-18T14:29:49.809Z,6.38
2022-08-18T14:32:29.068Z,3.92
2022-08-18T14:35:31.918Z,4.03
2022-08-18T14:37:49.614Z,4.20
2022-08-18T14:40:17.325Z,3.22
2022-08-18T14:42:55.155Z,4.80
2022-08-18T14:45:27.586Z,4.60
2022-08-18T14:48:04.409Z,3.65
2022-08-18T14:50:35.110Z,3.88
2022-08-18T14:53:02.453Z,5.22
2022-08-18T14:55:30.667Z,6.72
2022-08-18T14:57:59.580Z,5.60
2022-08-18T15:00:28.121Z,5.07
2022-08-18T15:02:55.400Z,5.10
2022-08-18T15:05:24.680Z,6.07
2022-08-18T15:07:53.117Z,4.50
2022-08-18T15:10:23.718Z,5.68
2022-08-18T15:12:57.881Z,5.10
2022-08-18T15:15:25.607Z,6.60
2022-08-18T15:17:53.350Z,5.57
2022-08-18T15:20:28.606Z,7.85
2022-08-18T15:23:22.673Z,5.88
2022-08-18T15:25:55.312Z,4.82
2022-08-18T15:28:26.462Z,6.85
2022-08-18T15:33:40.610Z,6.68
2022-08-18T15:36:10.286Z,5.57
2022-08-18T15:38:43.735Z,4.57
2022-08-18T15:41:25.652Z,7.07
2022-08-18T15:43:53.684Z,4.15
2022-08-18T15:46:20.824Z,4.15
2022-08-18T15:48:49.311Z,4.20
2022-08-18T15:51:17.248Z,3.88
2022-08-18T15:53:45.704Z,5.20
2022-08-18T15:56:15.008Z,3.97
2022-08-18T15:58:42.298Z,3.42
2022-08-18T16:01:30.487Z,2.40
2022-08-18T16:03:59.876Z,5.18
2022-08-18T16:06:32.537Z,3.95
2022-08-18T16:09:03.310Z,4.30
2022-08-18T16:11:30.360Z,3.92
2022-08-18T16:14:01.553Z,2.85
2022-08-18T16:16:29.155Z,4.90
2022-08-18T16:19:05.624Z,3.75
2022-08-18T16:21:33.103Z,3.28
2022-08-18T16:24:00.117Z,2.35
2022-08-18T16:26:27.290Z,2.97
2022-08-18T16:28:54.176Z,3.00
2022-08-18T16:31:28.550Z,4.10
2022-08-18T16:33:58.099Z,2.70
2022-08-18T16:36:25.849Z,2.60
2022-08-18T16:38:58.180Z,2.63
2022-08-18T16:41:26.797Z,6.05
2022-08-18T16:43:54.676Z,2.38
2022-08-18T16:46:26.719Z,3.90
2022-08-18T16:48:55.069Z,3.53
2022-08-18T16:51:23.776Z,3.00
2022-08-18T16:53:52.980Z,3.90
2022-08-18T16:56:22.882Z,5.13
2022-08-18T16:59:09.561Z,3.28
2022-08-18T17:01:55.605Z,2.85
2022-08-18T17:04:26.488Z,3.45
2022-08-18T17:06:53.554Z,2.88
2022-08-18T17:09:21.752Z,2.30
2022-08-18T17:11:52.635Z,4.15
2022-08-18T17:16:53.759Z,2.83
2022-08-18T17:21:49.624Z,2.72
2022-08-18T17:24:18.542Z,4.45
2022-08-18T17:29:50.246Z,4.57
2022-08-18T17:32:29.458Z,5.15
2022-08-18T17:35:05.234Z,1.95
2022-08-18T17:37:34.365Z,3.83
2022-08-18T17:40:15.629Z,5.47
2022-08-18T17:42:42.679Z,2.45
2022-08-18T17:45:21.489Z,4.57
2022-08-18T17:48:00.065Z,5.38
2022-08-18T17:51:15.391Z,3.88
2022-08-18T17:53:42.681Z,2.72
2022-08-18T17:56:34.469Z,4.38
2022-08-18T17:59:46.277Z,3.90
2022-08-18T18:02:29.640Z,3.15
2022-08-18T18:05:00.227Z,3.10
2022-08-18T18:07:27.272Z,6.05
2022-08-18T18:10:11.260Z,3.40
2022-08-18T18:12:39.289Z,3.22
2022-08-18T18:15:13.125Z,4.35
2022-08-18T18:17:43.068Z,5.97
2022-08-18T18:20:40.681Z,2.67
2022-08-18T18:23:29.089Z,4.03
2022-08-18T18:25:58.808Z,2.13
2022-08-18T18:28:30.744Z,7.40
2022-08-18T18:31:00.964Z,2.85
2022-08-18T18:33:30.590Z,3.63
2022-08-18T18:36:01.472Z,2.45
2022-08-18T18:38:37.963Z,3.20
2022-08-18T18:41:14.144Z,3.83
2022-08-18T18:43:46.661Z,2.83
2022-08-18T18:46:22.997Z,6.10
2022-08-18T18:49:14.729Z,4.07
2022-08-18T18:52:05.573Z,6.35
2022-08-18T18:54:36.363Z,9.07
2022-08-18T18:57:10.888Z,6.65
2022-08-18T19:00:10.326Z,4.97
2022-08-18T19:02:50.415Z,6.10
2022-08-18T19:05:35.434Z,4.50
2022-08-18T19:08:28.362Z,6.25
2022-08-18T19:11:07.423Z,3.78
2022-08-18T19:13:42.219Z,9.15
2022-08-18T19:16:23.280Z,10.10
2022-08-18T19:19:37.325Z,3.08
2022-08-18T19:22:03.775Z,4.05
2022-08-18T19:24:57.488Z,3.25
2022-08-18T19:27:32.021Z,4.07
2022-08-18T19:30:05.519Z,4.82
2022-08-18T19:32:49.612Z,2.92
2022-08-18T19:35:21.851Z,3.83
2022-08-18T19:38:20.875Z,6.68
2022-08-18T19:41:05.507Z,3.58
2022-08-18T19:43:56.394Z,3.33
2022-08-18T19:46:36.104Z,5.63
2022-08-18T19:49:26.435Z,4.60
2022-08-18T19:52:01.588Z,4.85
2022-08-18T19:54:56.729Z,3.33
2022-08-18T19:57:50.178Z,3.60
2022-08-18T20:00:40.236Z,3.17
2022-08-18T20:03:36.297Z,3.72
2022-08-18T20:06:48.383Z,4.43
2022-08-18T20:09:52.654Z,3.75
2022-08-18T20:12:39.731Z,3.63
2022-08-18T20:15:17.369Z,18.15
2022-08-18T20:18:18.580Z,2.47
2022-08-18T20:21:26.332Z,4.38
2022-08-18T20:23:59.765Z,5.50
2022-08-18T20:26:54.372Z,8.18
2022-08-18T20:29:42.777Z,5.78
2022-08-18T20:32:27.924Z,6.38
2022-08-18T20:35:18.004Z,4.78
2022-08-18T20:37:45.387Z,6.57
2022-08-18T20:40:42.629Z,4.95
2022-08-18T20:43:34.378Z,6.25
2022-08-18T20:46:35.828Z,5.10
2022-08-18T20:49:47.098Z,3.22
2022-08-18T20:52:20.018Z,6.53
2022-08-18T20:55:30.666Z,3.33
2022-08-18T20:58:08.336Z,6.67
2022-08-18T21:00:42.942Z,5.45
2022-08-18T21:03:20.712Z,5.90
2022-08-18T21:05:56.009Z,5.20
2022-08-18T21:08:29.406Z,5.22
2022-08-18T21:11:08.314Z,5.50
2022-08-18T21:13:46.545Z,5.60
2022-08-18T21:16:37.854Z,5.68
2022-08-18T21:19:41.174Z,6.93
2022-08-18T21:22:11.494Z,5.97
2022-08-18T21:24:44.062Z,9.98
2022-08-18T21:27:38.049Z,5.80
2022-08-18T21:30:19.583Z,6.22
2022-08-18T21:32:48.254Z,6.78
2022-08-18T21:35:38.247Z,5.03
2022-08-18T21:38:09.638Z,5.03
2022-08-18T21:40:42.161Z,8.65
2022-08-18T21:43:12.455Z,4.95
2022-08-18T21:45:59.373Z,6.53
2022-08-18T21:48:28.108Z,6.57
2022-08-18T21:51:02.156Z,8.05
2022-08-18T21:53:31.897Z,7.60
2022-08-18T21:56:07.268Z,5.15
2022-08-18T21:58:34.560Z,7.45
2022-08-18T22:01:10.732Z,6.20
2022-08-18T22:03:52.864Z,5.80
2022-08-18T22:06:25.937Z,6.13
2022-08-18T22:09:37.750Z,7.72
2022-08-18T22:12:51.985Z,5.13
2022-08-18T22:15:26.952Z,5.25
2022-08-18T22:18:35.226Z,6.32
2022-08-18T22:21:07.253Z,4.93
2022-08-18T22:24:07.104Z,4.55
2022-08-18T22:26:36.945Z,5.63
2022-08-18T22:29:07.493Z,5.70
2022-08-18T22:31:44.118Z,8.35
2022-08-18T22:34:32.123Z,4.50
2022-08-18T22:37:08.720Z,4.00
2022-08-18T22:39:40.747Z,7.00
2022-08-18T22:42:08.607Z,5.97
2022-08-18T22:44:36.321Z,5.80
2022-08-18T22:47:05.030Z,4.57
2022-08-18T22:49:37.213Z,5.32
2022-08-18T22:52:14.435Z,5.35
2022-08-18T22:54:41.522Z,5.32
2022-08-18T22:57:10.987Z,11.93
2022-08-18T22:59:42.074Z,4.72
2022-08-18T23:02:11.275Z,4.15
2022-08-18T23:04:38.842Z,10.65
2022-08-18T23:07:05.908Z,5.28
2022-08-18T23:09:33.837Z,4.95
2022-08-18T23:12:08.354Z,8.98
2022-08-18T23:14:35.516Z,8.43
2022-08-18T23:17:05.106Z,4.65
2022-08-18T23:19:32.946Z,6.25
2022-08-18T23:22:01.380Z,4.85
2022-08-18T23:24:28.523Z,5.10
2022-08-18T23:26:56.713Z,4.63
2022-08-18T23:29:24.151Z,7.22
2022-08-18T23:31:52.095Z,6.40
2022-08-18T23:34:23.111Z,6.50
2022-08-18T23:36:57.026Z,7.75
2022-08-18T23:39:25.912Z,7.78
2022-08-18T23:41:53.758Z,6.50
2022-08-18T23:44:23.920Z,5.72
2022-08-18T23:46:56.236Z,6.97
2022-08-18T23:49:23.588Z,5.90
2022-08-18T23:51:55.226Z,7.82
2022-08-18T23:54:28.737Z,6.13
2022-08-18T23:56:56.413Z,6.35
2022-08-18T23:59:24.926Z,6.57
